Time;durP1;ratioP1;P1;durP2;ratioP2;P2;SDS_P1;SDS_P2;PMS_P1;PMS_P2;Temp;Humidity;BMP_temperature;BMP_pressure;BME280_temperature;BME280_humidity;BME280_pressure;Samples;Min_cycle;Max_cycle;Signal;HPM_P1;HPM_P2
2021/10/20 00:02:08;;;;;;;4.53;2.02;;;;;;;10.57;42.47;101087.64;1655890;84;21844;-69
2021/10/20 00:04:35;;;;;;;7.35;2.20;;;;;;;10.51;42.43;101087.47;1659689;84;21149;-69
2021/10/20 00:07:02;;;;;;;6.78;3.42;;;;;;;10.44;42.42;101087.30;1678312;83;21085;-70
2021/10/20 00:09:28;;;;;;;6.30;2.95;;;;;;;10.32;42.48;101091.20;1680229;83;21092;-70
2021/10/20 00:11:56;;;;;;;5.67;2.83;;;;;;;10.28;42.42;101083.38;1681210;83;21076;-70
2021/10/20 00:14:24;;;;;;;8.28;2.92;;;;;;;10.15;42.31;101080.72;1677960;84;21159;-69
2021/10/20 00:16:51;;;;;;;7.20;3.70;;;;;;;10.01;42.33;101083.12;1678579;83;21077;-69
2021/10/20 00:19:17;;;;;;;8.35;3.42;;;;;;;9.91;42.36;101077.55;1681590;83;21048;-70
2021/10/20 00:21:44;;;;;;;7.17;2.95;;;;;;;9.74;42.53;101080.60;1677757;83;21085;-70
2021/10/20 00:24:10;;;;;;;6.17;2.90;;;;;;;9.67;42.62;101076.17;1678771;83;21800;-70
2021/10/20 00:26:37;;;;;;;5.75;2.75;;;;;;;9.47;43.03;101075.58;1678611;83;21204;-70
2021/10/20 00:29:04;;;;;;;5.22;2.67;;;;;;;9.49;43.21;101082.27;1678818;83;20961;-69
2021/10/20 00:31:31;;;;;;;4.37;2.33;;;;;;;9.48;43.33;101080.65;1680965;83;21123;-69
2021/10/20 00:33:57;;;;;;;6.25;2.22;;;;;;;9.47;43.62;101092.04;1680164;83;21001;-68
2021/10/20 00:36:24;;;;;;;4.85;2.35;;;;;;;9.41;44.02;101099.64;1679644;83;21088;-68
2021/10/20 00:38:51;;;;;;;5.15;2.47;;;;;;;9.51;44.27;101092.55;1677510;84;21158;-70
2021/10/20 00:41:17;;;;;;;5.45;2.30;;;;;;;9.56;44.36;101110.30;1681652;83;21022;-69
2021/10/20 00:43:45;;;;;;;7.05;2.72;;;;;;;9.67;44.13;101099.61;1672051;84;20961;-69
2021/10/20 00:46:11;;;;;;;6.78;2.83;;;;;;;9.63;43.98;101099.59;1672749;84;20969;-69
2021/10/20 00:48:38;;;;;;;5.83;3.00;;;;;;;9.47;44.07;101093.34;1681200;83;21053;-68
2021/10/20 00:51:05;;;;;;;6.25;2.75;;;;;;;9.58;43.88;101098.73;1678032;83;21123;-68
2021/10/20 00:53:32;;;;;;;7.12;2.92;;;;;;;9.59;43.76;101093.06;1680603;83;21103;-68
2021/10/20 00:55:58;;;;;;;6.83;2.92;;;;;;;9.65;43.71;101086.73;1677490;84;20982;-70
2021/10/20 00:58:24;;;;;;;5.65;3.00;;;;;;;9.69;43.59;101092.44;1678742;83;21066;-69
2021/10/20 01:00:51;;;;;;;5.10;2.77;;;;;;;9.69;43.67;101092.44;1678233;83;21048;-70
2021/10/20 01:03:18;;;;;;;4.50;2.45;;;;;;;9.60;43.75;101103.80;1680647;82;21118;-68
2021/10/20 01:05:45;;;;;;;6.72;3.05;;;;;;;9.66;43.70;101111.81;1715101;82;20995;-69
2021/10/20 01:08:12;;;;;;;5.87;2.80;;;;;;;9.70;43.53;101118.83;1712962;82;21517;-69
2021/10/20 01:10:39;;;;;;;6.70;2.98;;;;;;;8.97;44.76;101123.89;1714968;81;21026;-69
2021/10/20 01:13:05;;;;;;;5.12;2.83;;;;;;;9.07;44.70;101120.41;1678858;84;20913;-69
2021/10/20 01:15:34;;;;;;;6.12;2.40;;;;;;;9.11;44.66;101123.84;1711410;82;21002;-69
2021/10/20 01:18:02;;;;;;;5.58;2.58;;;;;;;9.20;44.52;101122.10;1711450;82;20995;-69
2021/10/20 01:20:32;;;;;;;6.25;2.98;;;;;;;9.24;44.44;101121.67;1714330;82;21417;-69
2021/10/20 01:22:59;;;;;;;7.47;3.37;;;;;;;9.22;44.40;101131.89;1679348;84;21065;-69
2021/10/20 01:25:27;;;;;;;5.83;2.60;;;;;;;9.22;44.48;101136.59;1678888;84;21469;-69
2021/10/20 01:27:54;;;;;;;4.97;2.58;;;;;;;9.16;44.51;101131.18;1712880;82;21235;-68
2021/10/20 01:30:20;;;;;;;7.17;2.80;;;;;;;9.13;44.52;101139.28;1709813;82;21111;-68
2021/10/20 01:32:47;;;;;;;6.62;2.98;;;;;;;9.16;44.45;101142.89;1714235;82;22358;-70
2021/10/20 01:35:13;;;;;;;5.25;2.70;;;;;;;9.13;44.58;101145.78;1712794;82;21019;-69
2021/10/20 01:37:42;;;;;;;8.98;3.77;;;;;;;9.19;44.51;101143.89;1713740;82;21145;-69
2021/10/20 01:40:10;;;;;;;8.05;3.92;;;;;;;9.21;44.37;101144.56;1711323;82;21148;-70
2021/10/20 01:42:37;;;;;;;7.08;3.10;;;;;;;9.38;44.02;101141.09;1679965;84;20959;-69
2021/10/20 01:45:11;;;;;;;5.05;3.08;;;;;;;9.25;44.14;101149.31;1680716;84;21526;-70
2021/10/20 01:47:39;;;;;;;5.75;3.00;;;;;;;8.77;44.70;101155.75;1679754;83;21387;-68
2021/10/20 01:50:08;;;;;;;5.97;3.22;;;;;;;8.60;45.27;101153.98;1679686;84;21556;-69
2021/10/20 01:52:36;;;;;;;8.93;3.30;;;;;;;8.57;45.26;101160.77;1678053;84;22891;-69
2021/10/20 01:55:06;;;;;;;5.53;2.75;;;;;;;8.84;44.73;101155.98;1711631;81;21485;-69
2021/10/20 01:57:33;;;;;;;;;;;;;;;8.67;44.92;101162.80;1714539;81;22402;-68
2021/10/20 02:00:00;;;;;;;6.75;3.15;;;;;;;8.71;44.86;101164.16;1715444;82;21204;-69
2021/10/20 02:02:27;;;;;;;6.28;3.33;;;;;;;8.82;44.75;101165.69;1713109;82;20987;-69
2021/10/20 02:04:53;;;;;;;7.33;3.45;;;;;;;8.80;44.65;101171.55;1708741;81;21107;-69
2021/10/20 02:07:20;;;;;;;7.15;3.25;;;;;;;8.69;44.87;101174.36;1711807;82;21110;-69
2021/10/20 02:09:46;;;;;;;6.10;3.65;;;;;;;8.76;44.68;101168.42;1713522;82;21007;-68
2021/10/20 02:12:13;;;;;;;7.53;4.00;;;;;;;8.60;45.05;101173.47;1713416;82;21019;-69
2021/10/20 02:14:41;;;;;;;5.97;3.20;;;;;;;8.32;45.51;101175.73;1708601;82;21070;-69
2021/10/20 02:17:08;;;;;;;5.67;3.20;;;;;;;8.51;45.42;101178.23;1679606;84;21089;-69
2021/10/20 02:19:34;;;;;;;6.37;3.22;;;;;;;8.47;45.49;101175.59;1680261;84;21001;-68
2021/10/20 02:22:03;;;;;;;5.05;2.40;;;;;;;8.63;45.27;101169.75;1679889;83;21077;-69
2021/10/20 02:24:29;;;;;;;7.75;3.80;;;;;;;8.68;45.23;101180.53;1677837;84;21026;-68
2021/10/20 02:26:56;;;;;;;5.37;3.20;;;;;;;8.58;45.36;101179.29;1678032;84;21107;-68
2021/10/20 02:29:24;;;;;;;6.22;3.25;;;;;;;8.58;45.40;101182.37;1680130;83;22452;-70
2021/10/20 02:31:50;;;;;;;6.33;3.20;;;;;;;8.63;45.33;101185.34;1679608;84;21109;-70
2021/10/20 02:34:20;;;;;;;7.95;3.60;;;;;;;8.53;45.59;101182.34;1679432;84;20950;-69
2021/10/20 02:36:47;;;;;;;7.83;3.92;;;;;;;8.28;45.91;101192.90;1713026;82;21099;-70
2021/10/20 02:39:13;;;;;;;6.12;3.75;;;;;;;8.31;46.04;101182.71;1711668;82;20991;-68
2021/10/20 02:41:40;;;;;;;5.85;3.33;;;;;;;8.44;45.82;101187.09;1713441;82;21157;-67
2021/10/20 02:44:07;;;;;;;6.83;3.37;;;;;;;8.40;45.92;101187.05;1713435;82;21391;-68
2021/10/20 02:46:33;;;;;;;6.20;3.33;;;;;;;8.44;45.88;101187.58;1710783;82;21094;-69
2021/10/20 02:49:01;;;;;;;5.92;3.75;;;;;;;8.39;45.97;101193.22;1712013;82;20991;-70
2021/10/20 02:51:29;;;;;;;8.28;3.60;;;;;;;8.39;45.92;101193.22;1714885;82;21154;-69
2021/10/20 02:53:57;;;;;;;6.62;3.60;;;;;;;8.31;46.08;101185.30;1712369;82;21174;-68
2021/10/20 02:56:25;;;;;;;7.97;3.40;;;;;;;8.17;46.34;101191.80;1713109;82;21098;-68
2021/10/20 02:58:52;;;;;;;6.12;3.35;;;;;;;8.15;46.43;101194.22;1715056;81;21051;-71
2021/10/20 03:01:19;;;;;;;7.58;3.45;;;;;;;8.27;46.26;101191.76;1690971;80;21035;-70
2021/10/20 03:03:46;;;;;;;5.83;2.72;;;;;;;8.21;46.33;101194.92;1647165;86;21569;-70
2021/10/20 03:06:15;;;;;;;5.33;2.45;;;;;;;8.13;46.59;101197.42;1643776;86;21588;-70
2021/10/20 03:08:43;;;;;;;6.33;2.65;;;;;;;8.25;46.67;101197.56;1659431;84;28684;-70
2021/10/20 03:11:10;;;;;;;7.20;2.65;;;;;;;8.28;46.75;101195.98;1647377;86;21016;-70
2021/10/20 03:13:36;;;;;;;6.45;2.87;;;;;;;8.37;46.62;101196.45;1644359;86;21177;-70
2021/10/20 03:16:04;;;;;;;8.50;3.15;;;;;;;8.50;46.29;101193.02;1658160;84;21007;-69
2021/10/20 03:18:30;;;;;;;6.50;3.25;;;;;;;8.49;46.04;101200.48;1647047;86;21150;-70
2021/10/20 03:20:57;;;;;;;5.72;2.60;;;;;;;8.46;45.97;101195.57;1628118;86;21075;-70
2021/10/20 03:23:23;;;;;;;6.30;2.85;;;;;;;8.48;45.82;101187.62;1629607;86;21756;-69
2021/10/20 03:25:50;;;;;;;6.08;3.30;;;;;;;8.44;45.90;101192.29;1629350;86;21134;-70
2021/10/20 03:28:16;;;;;;;5.97;3.95;;;;;;;8.51;45.77;101195.94;1660794;84;21564;-70
2021/10/20 03:30:43;;;;;;;6.20;3.05;;;;;;;8.51;45.71;101197.73;1656050;85;21089;-70
2021/10/20 03:33:09;;;;;;;6.75;3.00;;;;;;;8.37;45.86;101202.95;1647330;86;20908;-69
2021/10/20 03:35:35;;;;;;;6.53;2.62;;;;;;;8.48;45.72;101205.33;1641287;86;21119;-69
2021/10/20 03:38:03;;;;;;;6.83;3.00;;;;;;;8.12;46.22;101204.89;1644484;86;21549;-70
2021/10/20 03:40:30;;;;;;;5.10;2.65;;;;;;;8.03;46.46;101206.09;1646923;86;20987;-71
2021/10/20 03:42:56;;;;;;;6.10;3.30;;;;;;;8.10;46.50;101214.09;1659757;84;21144;-68
2021/10/20 03:45:23;;;;;;;7.62;3.40;;;;;;;7.99;46.71;101220.32;1630953;86;21122;-68
2021/10/20 03:47:50;;;;;;;15.28;4.05;;;;;;;7.84;47.03;101232.12;1657825;85;20916;-69
2021/10/20 03:50:16;;;;;;;7.08;3.40;;;;;;;7.85;47.08;101232.45;1644148;86;21582;-67
2021/10/20 03:52:43;;;;;;;10.18;3.87;;;;;;;7.97;46.95;101230.02;1653743;84;21034;-69
2021/10/20 03:55:10;;;;;;;11.12;4.20;;;;;;;8.04;46.76;101231.56;1643644;86;21166;-68
2021/10/20 03:57:38;;;;;;;10.48;3.60;;;;;;;8.13;46.64;101238.48;1643333;86;20941;-68
2021/10/20 04:00:08;;;;;;;10.00;3.70;;;;;;;8.16;46.63;101239.99;1657687;85;21011;-67
2021/10/20 04:02:42;;;;;;;6.90;2.90;;;;;;;8.25;46.48;101249.03;1648896;86;21103;-69
2021/10/20 04:05:06;;;;;;;5.10;2.55;;;;;;;8.33;46.53;101250.91;1647753;86;21117;-67
2021/10/20 04:07:33;;;;;;;6.30;2.35;;;;;;;8.24;46.82;101253.89;1643901;86;21141;-70
2021/10/20 04:10:00;;;;;;;6.17;2.30;;;;;;;8.38;47.21;101250.53;1646314;86;20967;-70
2021/10/20 04:12:27;;;;;;;3.92;2.20;;;;;;;8.65;47.50;101253.59;1643784;86;21462;-68
2021/10/20 04:14:53;;;;;;;3.65;1.80;;;;;;;8.93;47.51;101260.86;1646654;86;21024;-66
2021/10/20 04:17:22;;;;;;;4.35;2.25;;;;;;;9.20;47.18;101256.07;1644156;86;21118;-68
2021/10/20 04:19:48;;;;;;;4.22;2.25;;;;;;;9.09;47.35;101264.09;1641279;86;21206;-69
2021/10/20 04:22:14;;;;;;;4.15;2.20;;;;;;;9.07;47.85;101264.75;1645512;86;21513;-70
2021/10/20 04:24:41;;;;;;;3.75;1.85;;;;;;;9.12;47.93;101264.63;1640316;86;21079;-70
2021/10/20 04:27:07;;;;;;;5.55;2.40;;;;;;;9.20;48.03;101263.87;1642482;86;20912;-64
2021/10/20 04:29:34;;;;;;;5.40;2.17;;;;;;;9.28;48.13;101266.58;1640651;86;21075;-65
2021/10/20 04:32:00;;;;;;;4.62;2.05;;;;;;;9.61;47.88;101271.53;1642268;86;21158;-66
2021/10/20 04:34:27;;;;;;;3.72;1.77;;;;;;;9.89;47.68;101267.02;1608630;87;21058;-63
2021/10/20 04:36:54;;;;;;;4.28;2.12;;;;;;;9.97;47.54;101276.18;1638020;86;21568;-67
2021/10/20 04:39:21;;;;;;;5.30;2.08;;;;;;;10.36;46.94;101273.63;1640603;85;20952;-64
2021/10/20 04:41:47;;;;;;;6.70;2.87;;;;;;;10.67;46.42;101280.42;1641214;85;20955;-65
2021/10/20 04:44:14;;;;;;;6.22;2.87;;;;;;;10.81;46.13;101279.81;1641845;86;21347;-65
2021/10/20 04:46:40;;;;;;;5.00;2.90;;;;;;;10.95;45.66;101283.61;1638665;86;22240;-71
2021/10/20 04:49:07;;;;;;;6.03;3.30;;;;;;;11.01;45.63;101288.66;1639399;86;21615;-70
2021/10/20 04:51:33;;;;;;;6.90;3.42;;;;;;;11.28;45.39;101294.88;1637045;86;21006;-64
2021/10/20 04:54:00;;;;;;;7.60;3.45;;;;;;;11.47;44.97;101306.80;1646269;85;21105;-64
2021/10/20 04:56:27;;;;;;;7.00;3.50;;;;;;;11.67;44.67;101304.70;1645074;86;21156;-65
2021/10/20 04:58:54;;;;;;;6.55;3.02;;;;;;;11.80;44.59;101314.14;1643514;86;20940;-64
2021/10/20 05:01:20;;;;;;;6.45;3.77;;;;;;;12.00;44.38;101312.52;1643493;86;21031;-70
2021/10/20 05:03:46;;;;;;;6.33;3.20;;;;;;;12.03;44.24;101313.49;1648987;86;21031;-66
2021/10/20 05:06:13;;;;;;;10.65;5.53;;;;;;;12.26;43.90;101307.87;1647428;86;20920;-66
2021/10/20 05:08:39;;;;;;;7.45;4.12;;;;;;;12.38;43.75;101313.06;1644899;86;22040;-71
2021/10/20 05:11:06;;;;;;;8.50;5.17;;;;;;;12.49;43.61;101324.14;1647152;86;21075;-64
2021/10/20 05:13:33;;;;;;;7.10;4.03;;;;;;;12.41;43.69;101315.34;1645948;86;21522;-65
2021/10/20 05:15:59;;;;;;;9.15;3.95;;;;;;;12.64;43.18;101321.14;1641638;86;21469;-64
2021/10/20 05:18:25;;;;;;;6.25;3.67;;;;;;;12.78;43.06;101320.92;1646236;86;20936;-64
2021/10/20 05:20:53;;;;;;;7.50;4.65;;;;;;;13.02;42.65;101324.70;1647006;86;21149;-65
2021/10/20 05:23:20;;;;;;;9.18;5.33;;;;;;;13.41;41.96;101322.53;1644838;86;21062;-63
2021/10/20 05:25:46;;;;;;;9.25;6.12;;;;;;;13.39;41.47;101325.31;1643822;86;21075;-65
2021/10/20 05:28:13;;;;;;;9.73;6.47;;;;;;;13.59;41.05;101323.02;1643547;86;21539;-63
2021/10/20 05:30:39;;;;;;;7.12;5.22;;;;;;;14.01;41.13;101335.25;1646349;86;21019;-69
2021/10/20 05:33:06;;;;;;;5.92;4.00;;;;;;;14.69;41.12;101328.94;1641451;86;21128;-63
2021/10/20 05:35:32;;;;;;;7.10;3.40;;;;;;;15.73;40.01;101337.30;1646543;86;21019;-65
2021/10/20 05:37:59;;;;;;;5.05;3.08;;;;;;;16.52;37.54;101332.22;1644497;86;21102;-66
2021/10/20 05:40:26;;;;;;;5.20;2.72;;;;;;;16.76;36.26;101334.36;1641882;86;21158;-66
2021/10/20 05:42:53;;;;;;;5.90;2.57;;;;;;;17.38;35.04;101332.46;1644984;86;20992;-68
2021/10/20 05:45:20;;;;;;;4.97;2.80;;;;;;;18.05;33.90;101333.80;1640530;86;21574;-64
2021/10/20 05:47:47;;;;;;;5.43;2.40;;;;;;;18.71;33.21;101337.56;1647483;86;21179;-63
2021/10/20 05:50:15;;;;;;;4.50;2.20;;;;;;;19.41;32.25;101338.37;1644535;85;21224;-63
2021/10/20 05:52:42;;;;;;;4.33;2.13;;;;;;;20.07;31.39;101344.94;1641863;85;21921;-65
2021/10/20 05:55:09;;;;;;;4.10;2.30;;;;;;;20.76;30.01;101343.46;1644398;86;21692;-65
2021/10/20 05:57:37;;;;;;;3.73;2.00;;;;;;;21.35;29.17;101342.65;1646410;86;22061;-64
2021/10/20 06:00:07;;;;;;;6.93;2.33;;;;;;;22.00;28.25;101339.63;1647455;85;21028;-66
2021/10/20 06:02:36;;;;;;;3.40;1.80;;;;;;;22.42;27.52;101338.14;1653553;84;21147;-63
2021/10/20 06:05:03;;;;;;;4.57;1.97;;;;;;;22.90;26.68;101336.41;1656812;84;20963;-64
2021/10/20 06:07:31;;;;;;;5.10;2.10;;;;;;;23.33;26.15;101327.05;1661740;84;21169;-63
2021/10/20 06:09:58;;;;;;;4.57;2.00;;;;;;;23.69;25.12;101327.64;1656186;85;21156;-63
2021/10/20 06:12:24;;;;;;;4.57;2.27;;;;;;;23.63;24.74;101328.58;1659039;84;21025;-64
2021/10/20 06:14:52;;;;;;;3.90;2.20;;;;;;;23.90;24.27;101333.52;1659607;84;21331;-67
2021/10/20 06:17:19;;;;;;;3.93;2.03;;;;;;;24.15;24.31;101341.05;1657055;84;22166;-65
2021/10/20 06:19:46;;;;;;;5.00;2.13;;;;;;;24.72;24.01;101349.20;1657479;84;21591;-65
2021/10/20 06:22:12;;;;;;;3.90;1.70;;;;;;;25.10;23.12;101354.14;1657700;84;21145;-66
2021/10/20 06:24:39;;;;;;;4.77;1.93;;;;;;;25.16;22.27;101356.61;1654903;84;21031;-67
2021/10/20 06:27:06;;;;;;;2.87;1.57;;;;;;;25.12;22.06;101359.52;1655885;84;21050;-67
2021/10/20 06:29:33;;;;;;;3.90;2.10;;;;;;;25.30;22.14;101358.31;1657117;84;21090;-69
2021/10/20 06:32:00;;;;;;;3.73;1.80;;;;;;;25.61;21.77;101367.89;1658340;84;21055;-67
2021/10/20 06:34:26;;;;;;;2.97;1.50;;;;;;;26.02;21.37;101368.18;1661126;84;21152;-70
2021/10/20 06:36:53;;;;;;;3.67;1.80;;;;;;;26.10;20.67;101370.35;1660312;84;21156;-67
2021/10/20 06:39:23;;;;;;;3.50;1.53;;;;;;;26.00;20.42;101368.45;1659183;84;21043;-68
2021/10/20 06:41:51;;;;;;;4.28;1.90;;;;;;;26.02;20.63;101369.52;1660254;84;21512;-67
2021/10/20 06:44:19;;;;;;;4.90;1.90;;;;;;;26.26;19.98;101365.37;1656810;84;21047;-70
2021/10/20 06:46:47;;;;;;;3.70;2.10;;;;;;;26.24;19.86;101371.50;1657963;84;21141;-68
2021/10/20 06:49:14;;;;;;;4.80;2.33;;;;;;;26.38;19.63;101375.84;1654537;85;21639;-68
2021/10/20 06:51:42;;;;;;;4.17;2.00;;;;;;;26.51;19.56;101383.40;1657111;84;22338;-68
2021/10/20 06:54:17;;;;;;;3.30;1.80;;;;;;;26.80;19.12;101389.11;1656964;84;21122;-69
2021/10/20 06:56:38;;;;;;;3.87;1.70;;;;;;;26.99;19.02;101397.98;1659104;84;21166;-67
2021/10/20 06:59:04;;;;;;;3.30;1.57;;;;;;;26.80;18.90;101393.13;1660817;84;21148;-67
2021/10/20 07:01:31;;;;;;;5.17;1.70;;;;;;;26.69;19.08;101400.31;1658688;84;21051;-67
2021/10/20 07:03:58;;;;;;;3.80;1.67;;;;;;;26.91;18.90;101390.74;1676166;82;21087;-65
2021/10/20 07:06:27;;;;;;;3.40;1.97;;;;;;;27.11;18.68;101393.20;1673967;84;21035;-66
2021/10/20 07:08:53;;;;;;;3.60;1.50;;;;;;;27.14;18.59;101392.69;1676172;84;21083;-65
2021/10/20 07:11:22;;;;;;;4.13;1.70;;;;;;;27.15;18.58;101393.74;1674809;84;21588;-67
2021/10/20 07:13:50;;;;;;;3.43;1.60;;;;;;;27.34;18.29;101386.53;1675673;84;21110;-67
2021/10/20 07:16:16;;;;;;;3.73;1.50;;;;;;;27.06;18.23;101376.59;1674646;84;21447;-67
2021/10/20 07:18:43;;;;;;;2.70;1.47;;;;;;;26.83;18.38;101377.89;1671301;84;21050;-68
2021/10/20 07:21:10;;;;;;;3.03;1.60;;;;;;;26.98;18.18;101373.64;1674796;84;22206;-68
2021/10/20 07:23:36;;;;;;;3.43;2.17;;;;;;;27.15;18.20;101378.22;1674008;84;22342;-67
2021/10/20 07:26:03;;;;;;;3.73;1.40;;;;;;;27.08;17.92;101373.09;1676667;84;21067;-69
2021/10/20 07:28:29;;;;;;;2.80;1.33;;;;;;;27.27;17.89;101377.95;1675807;84;21154;-68
2021/10/20 07:30:56;;;;;;;4.60;1.50;;;;;;;27.36;17.82;101375.83;1674007;84;20944;-65
2021/10/20 07:33:22;;;;;;;3.90;1.97;;;;;;;27.37;17.99;101369.94;1675026;84;22490;-67
2021/10/20 07:35:49;;;;;;;2.47;1.30;;;;;;;27.27;17.96;101380.63;1675204;84;21065;-67
2021/10/20 07:38:16;;;;;;;4.60;1.40;;;;;;;27.25;17.99;101377.44;1677872;84;21075;-68
2021/10/20 07:40:42;;;;;;;2.73;1.40;;;;;;;27.34;17.85;101383.31;1674528;84;21612;-66
2021/10/20 07:43:09;;;;;;;2.77;1.43;;;;;;;27.43;17.93;101381.43;1677060;84;21564;-68
2021/10/20 07:45:35;;;;;;;3.57;1.30;;;;;;;27.55;17.54;101379.31;1673948;84;21145;-67
2021/10/20 07:48:04;;;;;;;3.07;1.30;;;;;;;27.63;17.43;101377.42;1675659;84;21133;-67
2021/10/20 07:50:32;;;;;;;3.30;1.30;;;;;;;27.67;17.34;101381.16;1668678;85;21095;-69
2021/10/20 07:52:58;;;;;;;3.10;1.30;;;;;;;27.60;17.31;101373.94;1675246;84;21028;-66
2021/10/20 07:55:25;;;;;;;6.67;2.63;;;;;;;27.41;16.96;101383.05;1673994;84;21984;-66
2021/10/20 07:57:55;;;;;;;3.40;1.63;;;;;;;27.11;16.69;101385.98;1673605;84;21139;-67
2021/10/20 08:00:23;;;;;;;3.40;1.60;;;;;;;26.87;16.74;101375.48;1674410;84;21108;-67
2021/10/20 08:02:49;;;;;;;4.67;2.83;;;;;;;26.64;17.07;101378.11;1652339;84;21097;-68
2021/10/20 08:05:16;;;;;;;4.70;1.60;;;;;;;26.83;17.12;101376.55;1672819;84;21157;-67
2021/10/20 08:07:46;;;;;;;3.40;1.70;;;;;;;26.95;16.90;101377.64;1636354;86;21121;-67
2021/10/20 08:10:19;;;;;;;3.93;1.80;;;;;;;26.97;16.78;101374.69;1674597;84;20943;-66
2021/10/20 08:12:46;;;;;;;5.10;1.87;;;;;;;26.86;16.70;101385.93;1671820;84;21151;-68
2021/10/20 08:15:14;;;;;;;4.37;2.00;;;;;;;26.65;16.78;101379.71;1675066;84;21153;-69
2021/10/20 08:17:43;;;;;;;3.63;1.93;;;;;;;26.51;17.17;101378.59;1675099;84;21086;-64
2021/10/20 08:20:12;;;;;;;5.33;2.10;;;;;;;26.65;17.13;101384.52;1675590;84;21066;-65
2021/10/20 08:22:39;;;;;;;2.93;1.50;;;;;;;26.76;16.81;101392.05;1674452;84;21085;-66
2021/10/20 08:25:07;;;;;;;5.27;2.10;;;;;;;26.85;16.82;101390.45;1674085;84;21383;-65
2021/10/20 08:27:35;;;;;;;4.00;1.83;;;;;;;27.04;16.84;101384.60;1672588;84;20995;-67
2021/10/20 08:30:03;;;;;;;3.03;1.60;;;;;;;27.09;16.60;101389.44;1674518;84;21034;-67
2021/10/20 08:32:29;;;;;;;3.10;1.30;;;;;;;27.16;16.07;101392.70;1674465;84;21115;-66
2021/10/20 08:34:56;;;;;;;4.20;2.00;;;;;;;26.87;15.79;101390.20;1673984;84;21071;-66
2021/10/20 08:37:23;;;;;;;3.60;1.60;;;;;;;26.22;15.99;101399.03;1672041;84;22052;-68
2021/10/20 08:39:49;;;;;;;7.23;1.20;;;;;;;25.62;16.33;101404.23;1674133;84;21487;-66
2021/10/20 08:42:16;;;;;;;2.23;0.73;;;;;;;25.19;16.86;101396.13;1669913;84;21112;-64
2021/10/20 08:44:43;;;;;;;3.07;1.33;;;;;;;24.95;16.91;101403.59;1675791;84;21050;-67
2021/10/20 08:47:10;;;;;;;3.60;1.57;;;;;;;24.79;17.15;101400.48;1671120;84;21108;-67
2021/10/20 08:49:39;;;;;;;2.57;1.30;;;;;;;24.34;17.12;101400.70;1617736;87;21162;-67
2021/10/20 08:52:06;;;;;;;4.90;2.30;;;;;;;24.04;17.61;101406.70;1676066;84;21360;-66
2021/10/20 08:54:33;;;;;;;3.30;1.13;;;;;;;23.87;18.19;101409.92;1673696;84;21501;-66
2021/10/20 08:56:59;;;;;;;2.70;0.83;;;;;;;23.90;18.02;101411.27;1675583;84;21102;-67
2021/10/20 08:59:26;;;;;;;2.33;1.10;;;;;;;23.77;17.98;101407.09;1673181;84;20904;-67
2021/10/20 09:01:53;;;;;;;3.50;1.10;;;;;;;23.63;18.08;101401.77;1675538;84;21156;-66
2021/10/20 09:04:21;;;;;;;4.40;1.67;;;;;;;23.62;18.34;101402.30;1658931;84;21588;-65
2021/10/20 09:06:50;;;;;;;2.90;1.23;;;;;;;23.84;18.57;101394.95;1640084;85;21015;-67
2021/10/20 09:09:18;;;;;;;2.27;0.93;;;;;;;24.15;18.21;101393.53;1657789;85;21201;-66
2021/10/20 09:11:45;;;;;;;5.03;2.47;;;;;;;24.21;18.40;101399.22;1656898;85;21094;-62
2021/10/20 09:14:14;;;;;;;2.47;0.90;;;;;;;24.48;18.02;101390.00;1658518;84;21112;-63
2021/10/20 09:16:43;;;;;;;2.93;1.03;;;;;;;24.31;17.62;101399.86;1656613;85;21566;-67
2021/10/20 09:19:30;;;;;;;2.80;0.70;;;;;;;23.99;17.86;101392.52;1655654;84;21423;-66
2021/10/20 09:21:57;;;;;;;2.67;1.35;;;;;;;24.12;17.70;101386.82;1657227;85;21600;-65
2021/10/20 09:24:28;;;;;;;2.80;1.00;;;;;;;24.06;17.99;101383.03;1654226;85;21529;-65
2021/10/20 09:26:57;;;;;;;3.15;1.70;;;;;;;24.41;18.24;101390.70;1676118;83;21144;-64
2021/10/20 09:29:29;;;;;;;3.30;1.50;;;;;;;25.03;17.60;101384.19;1654188;84;21026;-66
2021/10/20 09:31:56;;;;;;;6.40;2.87;;;;;;;25.29;17.03;101382.06;1630150;86;21581;-65
2021/10/20 09:34:35;;;;;;;4.13;2.00;;;;;;;25.28;16.91;101385.00;1613415;88;21084;-67
2021/10/20 09:37:06;;;;;;;3.40;1.83;;;;;;;25.37;16.72;101382.92;1595008;88;21626;-65
2021/10/20 09:39:33;;;;;;;4.85;2.50;;;;;;;25.40;16.64;101382.42;1611087;88;21102;-67
2021/10/20 09:42:12;;;;;;;4.23;1.37;;;;;;;25.60;16.72;101383.11;1597880;88;20989;-64
2021/10/20 09:44:52;;;;;;;2.00;1.00;;;;;;;25.98;16.54;101377.77;1600873;88;21108;-65
2021/10/20 09:47:19;;;;;;;3.33;1.60;;;;;;;26.25;16.36;101374.44;1598055;88;21404;-65
2021/10/20 09:49:50;;;;;;;2.60;1.13;;;;;;;26.32;16.19;101373.67;1638612;86;21877;-63
2021/10/20 09:52:17;;;;;;;2.17;0.90;;;;;;;26.42;16.49;101364.90;1641662;86;21206;-68
2021/10/20 09:54:46;;;;;;;1.50;0.70;;;;;;;26.50;16.40;101371.10;1639854;86;21703;-67
2021/10/20 09:57:14;;;;;;;1.93;0.93;;;;;;;26.32;16.44;101372.87;1637351;86;21146;-67
2021/10/20 09:59:41;;;;;;;3.33;1.00;;;;;;;26.41;16.55;101375.33;1632556;86;21565;-65
2021/10/20 10:02:09;;;;;;;2.93;1.07;;;;;;;26.51;16.49;101368.69;1633392;86;21491;-68
2021/10/20 10:04:37;;;;;;;2.90;1.07;;;;;;;26.66;16.37;101366.59;1625838;86;21532;-66
2021/10/20 10:07:05;;;;;;;1.97;0.93;;;;;;;26.68;16.28;101369.83;1616748;87;21080;-65
2021/10/20 10:09:32;;;;;;;2.00;0.90;;;;;;;26.48;16.26;101371.08;1624308;87;21631;-65
2021/10/20 10:12:20;;;;;;;4.77;1.27;;;;;;;26.33;16.28;101367.78;1621867;86;21035;-66
2021/10/20 10:14:51;;;;;;;2.30;1.00;;;;;;;26.22;16.18;101360.81;1641668;86;21018;-65
2021/10/20 10:17:19;;;;;;;3.23;1.23;;;;;;;26.23;15.89;101359.20;1642818;86;21164;-66
2021/10/20 10:19:46;;;;;;;2.90;0.87;;;;;;;26.10;15.68;101348.47;1645639;86;20980;-66
2021/10/20 10:22:27;;;;;;;3.13;1.30;;;;;;;25.93;15.81;101339.82;1644956;85;21376;-69
2021/10/20 10:24:54;;;;;;;5.65;2.75;;;;;;;25.82;15.62;101344.83;1643101;86;21130;-67
2021/10/20 10:27:21;;;;;;;2.87;1.20;;;;;;;25.45;15.52;101351.75;1650099;85;21007;-65
2021/10/20 10:29:57;;;;;;;2.93;0.80;;;;;;;25.20;15.75;101348.38;1644666;86;21169;-66
2021/10/20 10:32:26;;;;;;;2.63;1.10;;;;;;;25.12;15.85;101348.04;1642299;86;21121;-66
2021/10/20 10:34:53;;;;;;;2.27;0.90;;;;;;;25.15;15.86;101348.84;1644470;86;20956;-65
2021/10/20 10:37:32;;;;;;;3.10;1.00;;;;;;;25.17;15.91;101344.06;1641996;86;22178;-67
2021/10/20 10:40:19;;;;;;;1.80;0.70;;;;;;;25.40;15.71;101335.71;1640624;86;20997;-68
2021/10/20 10:42:47;;;;;;;2.90;1.10;;;;;;;25.58;15.99;101339.85;1637007;85;21188;-66
2021/10/20 10:45:22;;;;;;;2.43;0.80;;;;;;;25.75;16.06;101334.87;1643300;86;20944;-65
2021/10/20 10:48:08;;;;;;;2.77;1.50;;;;;;;25.90;15.58;101332.32;1641861;86;20999;-67
2021/10/20 10:50:53;;;;;;;2.07;1.20;;;;;;;25.80;15.49;101329.58;1639781;85;21081;-65
2021/10/20 10:53:38;;;;;;;2.53;1.10;;;;;;;25.52;15.84;101332.06;1640426;86;21031;-67
2021/10/20 10:56:08;;;;;;;3.23;1.40;;;;;;;25.54;15.79;101327.28;1641136;85;21168;-65
2021/10/20 10:59:07;;;;;;;2.73;1.20;;;;;;;25.40;16.13;101330.38;1643049;85;21030;-70
2021/10/20 11:01:48;;;;;;;2.37;0.93;;;;;;;25.34;16.24;101331.38;1640745;85;20995;-66
2021/10/20 11:04:23;;;;;;;2.63;1.20;;;;;;;25.60;16.41;101331.58;1659226;84;21582;-67
2021/10/20 11:06:52;;;;;;;3.20;1.10;;;;;;;25.72;15.94;101330.34;1672819;84;21479;-67
2021/10/20 11:09:21;;;;;;;2.90;0.93;;;;;;;25.70;16.09;101334.32;1671351;84;21160;-67
2021/10/20 11:11:54;;;;;;;2.77;0.80;;;;;;;25.78;16.00;101337.87;1669330;84;21013;-69
2021/10/20 11:14:24;;;;;;;3.73;0.97;;;;;;;25.67;15.62;101334.29;1666320;84;21033;-68
2021/10/20 11:17:10;;;;;;;2.53;1.00;;;;;;;25.48;15.68;101323.75;1664127;84;22601;-67
2021/10/20 11:19:38;;;;;;;6.07;2.30;;;;;;;25.35;15.76;101329.55;1629626;86;21105;-66
2021/10/20 11:22:05;;;;;;;7.50;1.73;;;;;;;25.33;16.13;101335.66;1668657;83;21380;-68
2021/10/20 11:24:35;;;;;;;3.90;1.00;;;;;;;25.41;16.33;101335.18;1668736;84;21540;-66
2021/10/20 11:27:05;;;;;;;2.57;1.37;;;;;;;25.35;16.22;101332.22;1632198;86;21103;-66
2021/10/20 11:29:46;;;;;;;4.20;2.40;;;;;;;25.23;16.25;101331.06;1609657;87;21578;-67
2021/10/20 11:32:15;;;;;;;21.83;13.67;;;;;;;25.11;16.33;101323.73;1602771;87;20992;-68
2021/10/20 11:34:43;;;;;;;21.30;13.73;;;;;;;24.97;16.38;101320.12;1663003;84;21123;-68